sensor_id;sensor_type;location;lat;lon;timestamp;temperature;humidity
36416;DHT22;22447;44.530;18.620;2023-07-13T00:02:17;21.90;99.90
36416;DHT22;22447;44.530;18.620;2023-07-13T00:04:42;21.90;99.90
36416;DHT22;22447;44.530;18.620;2023-07-13T00:07:08;21.80;99.90
36416;DHT22;22447;44.530;18.620;2023-07-13T00:09:35;21.80;99.90
36416;DHT22;22447;44.530;18.620;2023-07-13T00:12:02;21.80;99.90
36416;DHT22;22447;44.530;18.620;2023-07-13T00:14:29;21.80;99.90
36416;DHT22;22447;44.530;18.620;2023-07-13T00:16:55;21.80;99.90
36416;DHT22;22447;44.530;18.620;2023-07-13T00:19:21;21.80;99.90
36416;DHT22;22447;44.530;18.620;2023-07-13T00:21:47;21.70;99.90
36416;DHT22;22447;44.530;18.620;2023-07-13T00:24:16;21.70;99.90
36416;DHT22;22447;44.530;18.620;2023-07-13T00:26:47;21.70;99.90
36416;DHT22;22447;44.530;18.620;2023-07-13T00:29:13;21.60;99.90
36416;DHT22;22447;44.530;18.620;2023-07-13T00:31:39;21.60;99.90
36416;DHT22;22447;44.530;18.620;2023-07-13T00:34:05;21.60;99.90
36416;DHT22;22447;44.530;18.620;2023-07-13T00:36:31;21.60;99.90
36416;DHT22;22447;44.530;18.620;2023-07-13T00:38:58;21.60;99.90
36416;DHT22;22447;44.530;18.620;2023-07-13T00:41:24;21.60;99.90
36416;DHT22;22447;44.530;18.620;2023-07-13T00:43:50;21.60;99.90
36416;DHT22;22447;44.530;18.620;2023-07-13T00:46:25;21.60;99.90
36416;DHT22;22447;44.530;18.620;2023-07-13T00:48:53;21.60;99.90
36416;DHT22;22447;44.530;18.620;2023-07-13T00:51:26;21.50;99.90
36416;DHT22;22447;44.530;18.620;2023-07-13T00:53:54;21.50;99.90
36416;DHT22;22447;44.530;18.620;2023-07-13T00:56:22;21.50;99.90
36416;DHT22;22447;44.530;18.620;2023-07-13T00:58:49;21.50;99.90
36416;DHT22;22447;44.530;18.620;2023-07-13T01:01:15;21.50;99.90
36416;DHT22;22447;44.530;18.620;2023-07-13T01:03:41;21.60;99.90
36416;DHT22;22447;44.530;18.620;2023-07-13T01:06:07;21.60;99.90
36416;DHT22;22447;44.530;18.620;2023-07-13T01:08:33;21.60;99.90
36416;DHT22;22447;44.530;18.620;2023-07-13T01:11:00;21.60;99.90
36416;DHT22;22447;44.530;18.620;2023-07-13T01:13:26;21.50;99.90
36416;DHT22;22447;44.530;18.620;2023-07-13T01:15:53;21.50;99.90
36416;DHT22;22447;44.530;18.620;2023-07-13T01:18:25;21.50;99.90
36416;DHT22;22447;44.530;18.620;2023-07-13T01:20:59;21.50;99.90
36416;DHT22;22447;44.530;18.620;2023-07-13T01:23:27;21.60;99.90
36416;DHT22;22447;44.530;18.620;2023-07-13T01:25:55;21.50;99.90
36416;DHT22;22447;44.530;18.620;2023-07-13T01:28:22;21.50;99.90
36416;DHT22;22447;44.530;18.620;2023-07-13T01:30:49;21.50;99.90
36416;DHT22;22447;44.530;18.620;2023-07-13T01:33:16;21.50;99.90
36416;DHT22;22447;44.530;18.620;2023-07-13T01:35:43;21.50;99.90
36416;DHT22;22447;44.530;18.620;2023-07-13T01:38:11;21.50;99.90
36416;DHT22;22447;44.530;18.620;2023-07-13T01:40:38;21.40;99.90
36416;DHT22;22447;44.530;18.620;2023-07-13T01:43:04;21.40;99.90
36416;DHT22;22447;44.530;18.620;2023-07-13T01:45:30;21.40;99.90
36416;DHT22;22447;44.530;18.620;2023-07-13T01:47:56;21.30;99.90
36416;DHT22;22447;44.530;18.620;2023-07-13T01:50:23;21.40;99.90
36416;DHT22;22447;44.530;18.620;2023-07-13T01:52:49;21.30;99.90
36416;DHT22;22447;44.530;18.620;2023-07-13T01:55:15;21.30;99.90
36416;DHT22;22447;44.530;18.620;2023-07-13T01:57:41;21.20;99.90
36416;DHT22;22447;44.530;18.620;2023-07-13T02:00:09;21.20;99.90
36416;DHT22;22447;44.530;18.620;2023-07-13T02:02:41;21.20;99.90
36416;DHT22;22447;44.530;18.620;2023-07-13T02:05:09;21.10;99.90
36416;DHT22;22447;44.530;18.620;2023-07-13T02:07:35;21.10;99.90
36416;DHT22;22447;44.530;18.620;2023-07-13T02:10:03;21.00;99.90
36416;DHT22;22447;44.530;18.620;2023-07-13T02:12:29;21.00;99.90
36416;DHT22;22447;44.530;18.620;2023-07-13T02:14:55;21.00;99.90
36416;DHT22;22447;44.530;18.620;2023-07-13T02:17:21;20.90;99.90
36416;DHT22;22447;44.530;18.620;2023-07-13T02:19:47;20.90;99.90
36416;DHT22;22447;44.530;18.620;2023-07-13T02:22:13;20.90;99.90
36416;DHT22;22447;44.530;18.620;2023-07-13T02:24:39;20.80;99.90
36416;DHT22;22447;44.530;18.620;2023-07-13T02:27:05;20.80;99.90
36416;DHT22;22447;44.530;18.620;2023-07-13T02:29:31;20.80;99.90
36416;DHT22;22447;44.530;18.620;2023-07-13T02:31:57;20.80;99.90
36416;DHT22;22447;44.530;18.620;2023-07-13T02:34:23;20.80;99.90
36416;DHT22;22447;44.530;18.620;2023-07-13T02:36:49;20.80;99.90
36416;DHT22;22447;44.530;18.620;2023-07-13T02:39:15;20.70;99.90
36416;DHT22;22447;44.530;18.620;2023-07-13T02:41:41;20.70;99.90
36416;DHT22;22447;44.530;18.620;2023-07-13T02:44:07;20.60;99.90
36416;DHT22;22447;44.530;18.620;2023-07-13T02:46:36;20.60;99.90
36416;DHT22;22447;44.530;18.620;2023-07-13T02:49:03;20.60;99.90
36416;DHT22;22447;44.530;18.620;2023-07-13T02:51:29;20.60;99.90
36416;DHT22;22447;44.530;18.620;2023-07-13T02:53:55;20.60;99.90
36416;DHT22;22447;44.530;18.620;2023-07-13T02:56:27;20.50;99.90
36416;DHT22;22447;44.530;18.620;2023-07-13T02:58:53;20.50;99.90
36416;DHT22;22447;44.530;18.620;2023-07-13T03:01:20;20.40;99.90
36416;DHT22;22447;44.530;18.620;2023-07-13T03:03:48;20.40;99.90
36416;DHT22;22447;44.530;18.620;2023-07-13T03:06:15;20.40;99.90
36416;DHT22;22447;44.530;18.620;2023-07-13T03:08:47;20.40;99.90
36416;DHT22;22447;44.530;18.620;2023-07-13T03:11:18;20.30;99.90
36416;DHT22;22447;44.530;18.620;2023-07-13T03:13:47;20.30;99.90
36416;DHT22;22447;44.530;18.620;2023-07-13T03:16:14;20.20;99.90
36416;DHT22;22447;44.530;18.620;2023-07-13T03:18:46;20.30;99.90
36416;DHT22;22447;44.530;18.620;2023-07-13T03:21:12;20.20;99.90
36416;DHT22;22447;44.530;18.620;2023-07-13T03:23:40;20.20;99.90
36416;DHT22;22447;44.530;18.620;2023-07-13T03:26:12;20.10;99.90
36416;DHT22;22447;44.530;18.620;2023-07-13T03:28:40;20.10;99.90
36416;DHT22;22447;44.530;18.620;2023-07-13T03:31:10;20.00;99.90
36416;DHT22;22447;44.530;18.620;2023-07-13T03:33:37;20.00;99.90
36416;DHT22;22447;44.530;18.620;2023-07-13T03:36:05;20.00;99.90
36416;DHT22;22447;44.530;18.620;2023-07-13T03:38:32;20.00;99.90
36416;DHT22;22447;44.530;18.620;2023-07-13T03:41:00;20.10;99.90
36416;DHT22;22447;44.530;18.620;2023-07-13T03:43:30;20.10;99.90
36416;DHT22;22447;44.530;18.620;2023-07-13T03:45:55;20.10;99.90
36416;DHT22;22447;44.530;18.620;2023-07-13T03:48:21;20.10;99.90
36416;DHT22;22447;44.530;18.620;2023-07-13T03:50:48;20.10;99.90
36416;DHT22;22447;44.530;18.620;2023-07-13T03:53:15;20.10;99.90
36416;DHT22;22447;44.530;18.620;2023-07-13T03:55:41;20.10;99.90
36416;DHT22;22447;44.530;18.620;2023-07-13T03:58:35;20.00;99.90
36416;DHT22;22447;44.530;18.620;2023-07-13T04:01:10;20.10;99.90
36416;DHT22;22447;44.530;18.620;2023-07-13T04:03:36;20.10;99.90
36416;DHT22;22447;44.530;18.620;2023-07-13T04:06:07;20.20;99.90
36416;DHT22;22447;44.530;18.620;2023-07-13T04:08:35;20.20;99.90
36416;DHT22;22447;44.530;18.620;2023-07-13T04:11:03;20.30;99.90
36416;DHT22;22447;44.530;18.620;2023-07-13T04:13:29;20.40;99.90
36416;DHT22;22447;44.530;18.620;2023-07-13T04:15:55;20.40;99.90
36416;DHT22;22447;44.530;18.620;2023-07-13T04:18:21;20.50;99.90
36416;DHT22;22447;44.530;18.620;2023-07-13T04:20:48;20.50;99.90
36416;DHT22;22447;44.530;18.620;2023-07-13T04:23:15;20.50;99.90
36416;DHT22;22447;44.530;18.620;2023-07-13T04:25:45;20.50;99.90
36416;DHT22;22447;44.530;18.620;2023-07-13T04:28:12;20.50;99.90
36416;DHT22;22447;44.530;18.620;2023-07-13T04:30:38;20.60;99.90
36416;DHT22;22447;44.530;18.620;2023-07-13T04:33:04;20.60;99.90
36416;DHT22;22447;44.530;18.620;2023-07-13T04:35:30;20.80;99.90
36416;DHT22;22447;44.530;18.620;2023-07-13T04:37:57;20.80;99.90
36416;DHT22;22447;44.530;18.620;2023-07-13T04:40:23;20.90;99.90
36416;DHT22;22447;44.530;18.620;2023-07-13T04:42:49;21.00;99.90
36416;DHT22;22447;44.530;18.620;2023-07-13T04:45:15;21.10;99.90
36416;DHT22;22447;44.530;18.620;2023-07-13T04:47:41;21.10;99.90
36416;DHT22;22447;44.530;18.620;2023-07-13T04:50:08;21.10;99.90
36416;DHT22;22447;44.530;18.620;2023-07-13T04:52:34;21.20;99.90
36416;DHT22;22447;44.530;18.620;2023-07-13T04:55:00;21.20;99.90
36416;DHT22;22447;44.530;18.620;2023-07-13T04:57:27;21.30;99.90
36416;DHT22;22447;44.530;18.620;2023-07-13T04:59:53;21.30;99.90
36416;DHT22;22447;44.530;18.620;2023-07-13T05:02:21;21.40;99.90
36416;DHT22;22447;44.530;18.620;2023-07-13T05:04:47;21.50;99.90
36416;DHT22;22447;44.530;18.620;2023-07-13T05:07:13;21.60;99.90
36416;DHT22;22447;44.530;18.620;2023-07-13T05:09:39;21.70;99.90
36416;DHT22;22447;44.530;18.620;2023-07-13T05:12:08;21.80;99.90
36416;DHT22;22447;44.530;18.620;2023-07-13T05:14:34;21.90;99.90
36416;DHT22;22447;44.530;18.620;2023-07-13T05:17:00;22.00;99.90
36416;DHT22;22447;44.530;18.620;2023-07-13T05:19:26;22.10;99.90
36416;DHT22;22447;44.530;18.620;2023-07-13T05:21:52;22.20;99.90
36416;DHT22;22447;44.530;18.620;2023-07-13T05:24:18;22.30;99.90
36416;DHT22;22447;44.530;18.620;2023-07-13T05:26:44;22.50;99.90
36416;DHT22;22447;44.530;18.620;2023-07-13T05:29:11;22.50;99.90
36416;DHT22;22447;44.530;18.620;2023-07-13T05:31:37;22.70;99.90
36416;DHT22;22447;44.530;18.620;2023-07-13T05:34:03;22.80;99.90
36416;DHT22;22447;44.530;18.620;2023-07-13T05:36:29;22.80;99.90
36416;DHT22;22447;44.530;18.620;2023-07-13T05:38:54;22.90;99.90
36416;DHT22;22447;44.530;18.620;2023-07-13T05:41:20;23.00;99.90
36416;DHT22;22447;44.530;18.620;2023-07-13T05:43:46;23.10;99.90
36416;DHT22;22447;44.530;18.620;2023-07-13T05:46:12;23.20;99.90
36416;DHT22;22447;44.530;18.620;2023-07-13T05:48:38;23.30;99.90
36416;DHT22;22447;44.530;18.620;2023-07-13T05:51:04;23.50;99.90
36416;DHT22;22447;44.530;18.620;2023-07-13T05:53:30;23.60;99.90
36416;DHT22;22447;44.530;18.620;2023-07-13T05:55:56;23.70;99.90
36416;DHT22;22447;44.530;18.620;2023-07-13T05:58:21;23.80;99.90
36416;DHT22;22447;44.530;18.620;2023-07-13T06:00:48;23.90;99.90
36416;DHT22;22447;44.530;18.620;2023-07-13T06:03:15;24.10;99.90
36416;DHT22;22447;44.530;18.620;2023-07-13T06:05:41;24.20;99.90
36416;DHT22;22447;44.530;18.620;2023-07-13T06:08:07;24.40;99.90
36416;DHT22;22447;44.530;18.620;2023-07-13T06:10:35;24.60;99.90
36416;DHT22;22447;44.530;18.620;2023-07-13T06:13:05;24.80;99.90
36416;DHT22;22447;44.530;18.620;2023-07-13T06:15:31;24.90;99.90
36416;DHT22;22447;44.530;18.620;2023-07-13T06:18:02;25.10;99.90
36416;DHT22;22447;44.530;18.620;2023-07-13T06:20:28;25.10;99.90
36416;DHT22;22447;44.530;18.620;2023-07-13T06:22:55;25.00;99.90
36416;DHT22;22447;44.530;18.620;2023-07-13T06:25:24;25.10;99.90
36416;DHT22;22447;44.530;18.620;2023-07-13T06:27:51;25.30;99.90
36416;DHT22;22447;44.530;18.620;2023-07-13T06:30:17;25.40;99.90
36416;DHT22;22447;44.530;18.620;2023-07-13T06:32:43;25.50;99.90
36416;DHT22;22447;44.530;18.620;2023-07-13T06:35:09;25.70;99.10
36416;DHT22;22447;44.530;18.620;2023-07-13T06:37:38;25.90;99.90
36416;DHT22;22447;44.530;18.620;2023-07-13T06:40:07;26.10;99.90
36416;DHT22;22447;44.530;18.620;2023-07-13T06:42:39;26.30;99.00
36416;DHT22;22447;44.530;18.620;2023-07-13T06:45:05;26.50;98.60
36416;DHT22;22447;44.530;18.620;2023-07-13T06:47:31;26.70;96.70
36416;DHT22;22447;44.530;18.620;2023-07-13T06:49:57;26.80;95.60
36416;DHT22;22447;44.530;18.620;2023-07-13T06:52:23;27.00;95.20
36416;DHT22;22447;44.530;18.620;2023-07-13T06:54:49;27.10;93.00
36416;DHT22;22447;44.530;18.620;2023-07-13T06:57:18;27.30;93.70
36416;DHT22;22447;44.530;18.620;2023-07-13T06:59:47;27.50;98.90
36416;DHT22;22447;44.530;18.620;2023-07-13T07:02:14;27.50;98.00
36416;DHT22;22447;44.530;18.620;2023-07-13T07:04:39;27.60;98.90
36416;DHT22;22447;44.530;18.620;2023-07-13T07:07:06;27.90;98.30
36416;DHT22;22447;44.530;18.620;2023-07-13T07:09:31;28.20;96.10
36416;DHT22;22447;44.530;18.620;2023-07-13T07:11:58;28.50;95.50
36416;DHT22;22447;44.530;18.620;2023-07-13T07:14:24;28.80;93.60
36416;DHT22;22447;44.530;18.620;2023-07-13T07:16:50;29.20;93.10
36416;DHT22;22447;44.530;18.620;2023-07-13T07:19:16;29.50;90.20
36416;DHT22;22447;44.530;18.620;2023-07-13T07:21:42;29.80;89.00
36416;DHT22;22447;44.530;18.620;2023-07-13T07:24:08;30.20;81.60
36416;DHT22;22447;44.530;18.620;2023-07-13T07:26:34;30.50;82.60
36416;DHT22;22447;44.530;18.620;2023-07-13T07:29:00;31.00;82.10
36416;DHT22;22447;44.530;18.620;2023-07-13T07:31:26;31.10;78.20
36416;DHT22;22447;44.530;18.620;2023-07-13T07:33:52;31.50;77.60
36416;DHT22;22447;44.530;18.620;2023-07-13T07:36:18;31.70;77.60
36416;DHT22;22447;44.530;18.620;2023-07-13T07:38:44;31.90;77.90
36416;DHT22;22447;44.530;18.620;2023-07-13T07:41:10;32.20;77.80
36416;DHT22;22447;44.530;18.620;2023-07-13T07:43:36;32.40;75.60
36416;DHT22;22447;44.530;18.620;2023-07-13T07:46:03;32.60;74.00
36416;DHT22;22447;44.530;18.620;2023-07-13T07:48:29;32.80;72.10
36416;DHT22;22447;44.530;18.620;2023-07-13T07:50:56;32.80;69.10
36416;DHT22;22447;44.530;18.620;2023-07-13T07:53:25;32.70;74.20
36416;DHT22;22447;44.530;18.620;2023-07-13T07:55:51;32.90;72.70
36416;DHT22;22447;44.530;18.620;2023-07-13T07:58:17;33.10;72.30
36416;DHT22;22447;44.530;18.620;2023-07-13T08:00:43;33.40;73.40
36416;DHT22;22447;44.530;18.620;2023-07-13T08:03:10;33.60;66.60
36416;DHT22;22447;44.530;18.620;2023-07-13T08:05:37;33.70;66.20
36416;DHT22;22447;44.530;18.620;2023-07-13T08:08:04;33.90;66.20
36416;DHT22;22447;44.530;18.620;2023-07-13T08:10:30;33.70;68.30
36416;DHT22;22447;44.530;18.620;2023-07-13T08:12:56;34.00;69.40
36416;DHT22;22447;44.530;18.620;2023-07-13T08:15:21;34.20;63.30
36416;DHT22;22447;44.530;18.620;2023-07-13T08:17:49;34.10;67.00
36416;DHT22;22447;44.530;18.620;2023-07-13T08:20:16;34.50;64.00
36416;DHT22;22447;44.530;18.620;2023-07-13T08:22:43;34.70;68.40
36416;DHT22;22447;44.530;18.620;2023-07-13T08:25:09;34.80;61.70
36416;DHT22;22447;44.530;18.620;2023-07-13T08:27:35;34.80;64.10
36416;DHT22;22447;44.530;18.620;2023-07-13T08:30:01;35.00;63.00
36416;DHT22;22447;44.530;18.620;2023-07-13T08:32:26;34.70;58.80
36416;DHT22;22447;44.530;18.620;2023-07-13T08:34:53;35.30;57.90
36416;DHT22;22447;44.530;18.620;2023-07-13T08:37:19;35.30;55.80
36416;DHT22;22447;44.530;18.620;2023-07-13T08:39:45;35.50;57.10
36416;DHT22;22447;44.530;18.620;2023-07-13T08:45:08;34.80;56.10
36416;DHT22;22447;44.530;18.620;2023-07-13T08:47:44;34.80;56.10
36416;DHT22;22447;44.530;18.620;2023-07-13T08:50:16;34.90;55.60
36416;DHT22;22447;44.530;18.620;2023-07-13T08:52:44;34.90;57.50
36416;DHT22;22447;44.530;18.620;2023-07-13T08:55:17;35.40;55.70
36416;DHT22;22447;44.530;18.620;2023-07-13T08:57:46;36.10;51.70
36416;DHT22;22447;44.530;18.620;2023-07-13T09:00:14;36.20;47.20
36416;DHT22;22447;44.530;18.620;2023-07-13T09:02:56;36.40;49.30
36416;DHT22;22447;44.530;18.620;2023-07-13T09:05:40;36.20;52.60
36416;DHT22;22447;44.530;18.620;2023-07-13T09:14:06;36.90;53.40
36416;DHT22;22447;44.530;18.620;2023-07-13T09:17:17;37.20;46.50
36416;DHT22;22447;44.530;18.620;2023-07-13T09:19:47;37.20;46.90
36416;DHT22;22447;44.530;18.620;2023-07-13T09:22:20;37.50;48.20
36416;DHT22;22447;44.530;18.620;2023-07-13T09:25:02;37.70;43.40
36416;DHT22;22447;44.530;18.620;2023-07-13T09:27:35;37.50;44.50
36416;DHT22;22447;44.530;18.620;2023-07-13T09:32:49;37.50;46.90
36416;DHT22;22447;44.530;18.620;2023-07-13T09:35:19;37.40;47.20
36416;DHT22;22447;44.530;18.620;2023-07-13T09:37:52;37.90;47.60
36416;DHT22;22447;44.530;18.620;2023-07-13T09:40:39;37.80;39.80
36416;DHT22;22447;44.530;18.620;2023-07-13T09:43:10;38.20;43.50
36416;DHT22;22447;44.530;18.620;2023-07-13T09:45:37;37.90;39.90
36416;DHT22;22447;44.530;18.620;2023-07-13T09:48:13;38.10;43.00
36416;DHT22;22447;44.530;18.620;2023-07-13T09:50:40;38.00;45.80
36416;DHT22;22447;44.530;18.620;2023-07-13T09:53:15;37.90;43.70
36416;DHT22;22447;44.530;18.620;2023-07-13T09:55:44;38.00;43.10
36416;DHT22;22447;44.530;18.620;2023-07-13T09:58:18;37.90;46.70
36416;DHT22;22447;44.530;18.620;2023-07-13T10:01:03;38.20;44.10
36416;DHT22;22447;44.530;18.620;2023-07-13T10:03:32;38.50;40.70
36416;DHT22;22447;44.530;18.620;2023-07-13T10:06:21;38.10;44.10
36416;DHT22;22447;44.530;18.620;2023-07-13T10:08:50;38.10;40.70
36416;DHT22;22447;44.530;18.620;2023-07-13T10:11:22;38.40;38.50
36416;DHT22;22447;44.530;18.620;2023-07-13T10:14:02;38.80;36.80
36416;DHT22;22447;44.530;18.620;2023-07-13T10:16:32;38.30;38.40
36416;DHT22;22447;44.530;18.620;2023-07-13T10:19:05;38.90;36.20
36416;DHT22;22447;44.530;18.620;2023-07-13T10:21:36;38.80;34.50
36416;DHT22;22447;44.530;18.620;2023-07-13T10:24:24;38.70;34.30
36416;DHT22;22447;44.530;18.620;2023-07-13T10:27:11;39.10;33.50
36416;DHT22;22447;44.530;18.620;2023-07-13T10:29:46;39.20;39.00
36416;DHT22;22447;44.530;18.620;2023-07-13T10:32:14;39.10;35.60
36416;DHT22;22447;44.530;18.620;2023-07-13T10:34:45;39.40;38.40
36416;DHT22;22447;44.530;18.620;2023-07-13T10:37:20;39.60;37.20
36416;DHT22;22447;44.530;18.620;2023-07-13T10:39:48;40.00;37.00
36416;DHT22;22447;44.530;18.620;2023-07-13T10:44:52;39.70;36.30
36416;DHT22;22447;44.530;18.620;2023-07-13T10:47:18;39.10;36.40
36416;DHT22;22447;44.530;18.620;2023-07-13T10:49:52;39.30;37.10
36416;DHT22;22447;44.530;18.620;2023-07-13T10:53:20;39.60;38.20
36416;DHT22;22447;44.530;18.620;2023-07-13T10:55:40;39.70;39.10
36416;DHT22;22447;44.530;18.620;2023-07-13T10:58:14;39.50;37.20
36416;DHT22;22447;44.530;18.620;2023-07-13T11:00:51;39.90;39.00
36416;DHT22;22447;44.530;18.620;2023-07-13T11:03:22;39.80;37.10
36416;DHT22;22447;44.530;18.620;2023-07-13T11:05:51;40.00;38.40
36416;DHT22;22447;44.530;18.620;2023-07-13T11:08:38;39.50;38.70
36416;DHT22;22447;44.530;18.620;2023-07-13T11:11:33;39.20;35.60
36416;DHT22;22447;44.530;18.620;2023-07-13T11:14:02;39.60;42.20
36416;DHT22;22447;44.530;18.620;2023-07-13T11:16:43;39.80;39.00
36416;DHT22;22447;44.530;18.620;2023-07-13T11:19:37;39.90;42.20
36416;DHT22;22447;44.530;18.620;2023-07-13T11:22:16;40.10;36.00
36416;DHT22;22447;44.530;18.620;2023-07-13T11:27:52;40.00;37.90
36416;DHT22;22447;44.530;18.620;2023-07-13T11:36:02;39.80;39.50
36416;DHT22;22447;44.530;18.620;2023-07-13T11:38:38;40.10;41.00
36416;DHT22;22447;44.530;18.620;2023-07-13T11:41:21;39.60;39.50
36416;DHT22;22447;44.530;18.620;2023-07-13T11:43:53;38.60;36.30
36416;DHT22;22447;44.530;18.620;2023-07-13T11:46:28;38.70;37.40
36416;DHT22;22447;44.530;18.620;2023-07-13T11:48:54;38.50;37.40
36416;DHT22;22447;44.530;18.620;2023-07-13T11:51:35;38.80;40.50
36416;DHT22;22447;44.530;18.620;2023-07-13T11:54:05;38.70;39.00
36416;DHT22;22447;44.530;18.620;2023-07-13T11:56:32;38.80;41.30
36416;DHT22;22447;44.530;18.620;2023-07-13T11:59:05;38.50;40.70
36416;DHT22;22447;44.530;18.620;2023-07-13T12:01:32;38.30;38.50
36416;DHT22;22447;44.530;18.620;2023-07-13T12:04:03;37.20;44.60
36416;DHT22;22447;44.530;18.620;2023-07-13T12:06:32;36.40;49.20
36416;DHT22;22447;44.530;18.620;2023-07-13T12:09:17;36.60;50.60
36416;DHT22;22447;44.530;18.620;2023-07-13T12:11:44;37.40;48.50
36416;DHT22;22447;44.530;18.620;2023-07-13T12:14:19;37.70;51.80
36416;DHT22;22447;44.530;18.620;2023-07-13T12:16:46;37.60;47.40
36416;DHT22;22447;44.530;18.620;2023-07-13T12:19:19;36.70;52.70
36416;DHT22;22447;44.530;18.620;2023-07-13T12:21:46;36.60;49.60
36416;DHT22;22447;44.530;18.620;2023-07-13T12:24:20;36.40;52.10
36416;DHT22;22447;44.530;18.620;2023-07-13T12:27:14;36.60;47.40
36416;DHT22;22447;44.530;18.620;2023-07-13T12:29:53;36.40;50.80
36416;DHT22;22447;44.530;18.620;2023-07-13T12:32:25;36.50;53.30
36416;DHT22;22447;44.530;18.620;2023-07-13T12:35:14;36.70;52.80
36416;DHT22;22447;44.530;18.620;2023-07-13T12:37:45;36.50;54.50
36416;DHT22;22447;44.530;18.620;2023-07-13T12:40:19;36.80;54.70
36416;DHT22;22447;44.530;18.620;2023-07-13T12:42:52;37.00;48.70
36416;DHT22;22447;44.530;18.620;2023-07-13T12:45:28;37.40;50.80
36416;DHT22;22447;44.530;18.620;2023-07-13T12:48:03;37.70;53.90
36416;DHT22;22447;44.530;18.620;2023-07-13T12:50:41;37.80;53.50
36416;DHT22;22447;44.530;18.620;2023-07-13T12:53:14;38.00;46.80
36416;DHT22;22447;44.530;18.620;2023-07-13T12:55:53;38.00;46.40
36416;DHT22;22447;44.530;18.620;2023-07-13T12:58:32;38.50;46.00
36416;DHT22;22447;44.530;18.620;2023-07-13T13:01:02;38.10;47.60
36416;DHT22;22447;44.530;18.620;2023-07-13T13:04:00;38.50;46.80
36416;DHT22;22447;44.530;18.620;2023-07-13T13:06:28;38.10;49.00
36416;DHT22;22447;44.530;18.620;2023-07-13T13:08:58;38.20;50.30
36416;DHT22;22447;44.530;18.620;2023-07-13T13:11:26;38.20;47.40
36416;DHT22;22447;44.530;18.620;2023-07-13T13:13:53;37.90;49.70
36416;DHT22;22447;44.530;18.620;2023-07-13T13:16:34;38.10;51.00
36416;DHT22;22447;44.530;18.620;2023-07-13T13:19:16;38.40;49.10
36416;DHT22;22447;44.530;18.620;2023-07-13T13:21:44;38.60;49.60
36416;DHT22;22447;44.530;18.620;2023-07-13T13:24:19;38.20;47.40
36416;DHT22;22447;44.530;18.620;2023-07-13T13:26:46;37.50;48.70
36416;DHT22;22447;44.530;18.620;2023-07-13T13:29:19;37.80;48.90
36416;DHT22;22447;44.530;18.620;2023-07-13T13:31:45;38.10;46.80
36416;DHT22;22447;44.530;18.620;2023-07-13T13:34:14;37.90;48.10
36416;DHT22;22447;44.530;18.620;2023-07-13T13:36:41;37.70;48.00
36416;DHT22;22447;44.530;18.620;2023-07-13T13:39:34;37.40;47.70
36416;DHT22;22447;44.530;18.620;2023-07-13T13:42:01;37.50;52.50
36416;DHT22;22447;44.530;18.620;2023-07-13T13:44:27;37.60;48.00
36416;DHT22;22447;44.530;18.620;2023-07-13T13:46:55;37.20;49.50
36416;DHT22;22447;44.530;18.620;2023-07-13T13:49:24;37.20;48.20
36416;DHT22;22447;44.530;18.620;2023-07-13T13:51:51;37.30;48.20
36416;DHT22;22447;44.530;18.620;2023-07-13T13:54:18;37.30;48.50
36416;DHT22;22447;44.530;18.620;2023-07-13T13:56:47;37.30;48.90
36416;DHT22;22447;44.530;18.620;2023-07-13T13:59:13;36.90;48.60
36416;DHT22;22447;44.530;18.620;2023-07-13T14:01:41;36.80;52.20
36416;DHT22;22447;44.530;18.620;2023-07-13T14:04:20;36.60;50.80
36416;DHT22;22447;44.530;18.620;2023-07-13T14:06:46;36.20;51.90
36416;DHT22;22447;44.530;18.620;2023-07-13T14:09:14;36.10;50.80
36416;DHT22;22447;44.530;18.620;2023-07-13T14:11:42;36.50;53.10
36416;DHT22;22447;44.530;18.620;2023-07-13T14:14:16;35.50;47.30
36416;DHT22;22447;44.530;18.620;2023-07-13T14:16:42;35.10;48.90
36416;DHT22;22447;44.530;18.620;2023-07-13T14:19:12;35.40;54.70
36416;DHT22;22447;44.530;18.620;2023-07-13T14:21:40;35.40;48.70
36416;DHT22;22447;44.530;18.620;2023-07-13T14:24:06;35.50;55.50
36416;DHT22;22447;44.530;18.620;2023-07-13T14:26:37;35.60;51.90
36416;DHT22;22447;44.530;18.620;2023-07-13T14:29:11;35.50;53.30
36416;DHT22;22447;44.530;18.620;2023-07-13T14:31:38;35.60;49.20
36416;DHT22;22447;44.530;18.620;2023-07-13T14:34:03;35.10;49.30
36416;DHT22;22447;44.530;18.620;2023-07-13T14:36:37;35.10;48.90
36416;DHT22;22447;44.530;18.620;2023-07-13T14:39:21;35.00;52.00
36416;DHT22;22447;44.530;18.620;2023-07-13T14:41:51;34.50;49.90
36416;DHT22;22447;44.530;18.620;2023-07-13T14:44:19;34.40;50.80
36416;DHT22;22447;44.530;18.620;2023-07-13T14:46:46;34.10;52.20
36416;DHT22;22447;44.530;18.620;2023-07-13T14:49:32;34.10;52.30
36416;DHT22;22447;44.530;18.620;2023-07-13T14:52:08;34.00;52.20
36416;DHT22;22447;44.530;18.620;2023-07-13T14:54:36;33.80;52.00
36416;DHT22;22447;44.530;18.620;2023-07-13T14:57:12;33.80;53.00
36416;DHT22;22447;44.530;18.620;2023-07-13T14:59:39;33.90;52.30
36416;DHT22;22447;44.530;18.620;2023-07-13T15:02:25;33.90;61.30
36416;DHT22;22447;44.530;18.620;2023-07-13T15:04:52;33.70;60.10
36416;DHT22;22447;44.530;18.620;2023-07-13T15:07:19;33.50;61.40
36416;DHT22;22447;44.530;18.620;2023-07-13T15:09:47;33.20;65.20
36416;DHT22;22447;44.530;18.620;2023-07-13T15:12:13;33.10;66.10
36416;DHT22;22447;44.530;18.620;2023-07-13T15:14:39;32.90;70.30
36416;DHT22;22447;44.530;18.620;2023-07-13T15:17:26;32.70;70.40
36416;DHT22;22447;44.530;18.620;2023-07-13T15:19:53;32.50;70.90
36416;DHT22;22447;44.530;18.620;2023-07-13T15:22:19;32.50;76.20
36416;DHT22;22447;44.530;18.620;2023-07-13T15:24:45;32.30;80.30
36416;DHT22;22447;44.530;18.620;2023-07-13T15:27:12;32.10;84.70
36416;DHT22;22447;44.530;18.620;2023-07-13T15:29:38;32.00;86.80
36416;DHT22;22447;44.530;18.620;2023-07-13T15:32:13;32.00;85.60
36416;DHT22;22447;44.530;18.620;2023-07-13T15:34:40;31.70;88.30
36416;DHT22;22447;44.530;18.620;2023-07-13T15:37:14;31.80;90.30
36416;DHT22;22447;44.530;18.620;2023-07-13T15:39:40;31.70;93.50
36416;DHT22;22447;44.530;18.620;2023-07-13T15:42:15;31.60;94.00
36416;DHT22;22447;44.530;18.620;2023-07-13T15:44:42;31.40;95.00
36416;DHT22;22447;44.530;18.620;2023-07-13T15:47:12;31.30;97.40
36416;DHT22;22447;44.530;18.620;2023-07-13T15:49:41;31.20;96.90
36416;DHT22;22447;44.530;18.620;2023-07-13T15:52:18;31.20;98.30
36416;DHT22;22447;44.530;18.620;2023-07-13T15:54:46;31.00;98.30